Torr Penn — FAA8580 — position and weather

sailwx.info

Track history (hours):
 
Tides and Currents Weather Stations Pressure Air Temp Water Temp Dewpoint Dewpoint Depression Visibility Wind Speed Wind Dir Waves Ship Positions

Torr Penn

Last reported at 2018-Jun-26 12:35 UTC. Time now 2018-Jul-18 18:31 UTC.
Position N 47°22' W 002°35'.
Warning: this ship's position is 22 days out of date.

Length 15 m.

Type: Sailing vessel. MMSI: 227163870.

Date/timePositionNaut miles runAvg speedWind from/ knotsBaromVisibWave heightAir tempDewpointWater temp
2018-Jun-26 12:35N 47°22' W 002°35'1 6.6
2018-Jun-26 12:30N 47°23' W 002°34'4 0.2
2018-Jun-25 11:43N 47°23' W 002°41'9 0.4
2018-Jun-24 15:10N 47°21' W 002°53'8 0.2
2018-Jun-22 13:41N 47°23' W 003°04'4 0.1
2018-Jun-21 07:59N 47°21' W 003°09'10 0.2
2018-Jun-19 08:54N 47°22' W 002°55'2 5.6
2018-Jun-19 08:27N 47°24' W 002°53'2 4.8
2018-Jun-19 07:59N 47°26' W 002°50'2 4.9
2018-Jun-19 07:30N 47°27' W 002°47'3 5.0
2018-Jun-19 07:00N 47°29' W 002°44'2 1.2
2018-Jun-19 05:37N 47°30' W 002°44'0 0.0
2018-Jun-19 05:28N 47°30' W 002°44'0 0.0
2018-Jun-19 04:58N 47°30' W 002°44'0 0.0
2018-Jun-19 04:28N 47°30' W 002°44'0 0.0
2018-Jun-19 03:55N 47°30' W 002°44'0 0.0
2018-Jun-19 03:28N 47°30' W 002°44'0 0.0
2018-Jun-19 02:58N 47°30' W 002°44'0 0.0
2018-Jun-19 02:28N 47°30' W 002°44'0 0.0
2018-Jun-19 01:55N 47°30' W 002°44'0 0.0
2018-Jun-19 01:25N 47°30' W 002°44'0 0.0
2018-Jun-19 00:58N 47°30' W 002°44'0 0.0
2018-Jun-19 00:28N 47°30' W 002°44'0 0.0
2018-Jun-18 23:55N 47°30' W 002°44'0 0.0
2018-Jun-18 23:28N 47°30' W 002°44'0 0.0
2018-Jun-18 22:58N 47°30' W 002°44'0 0.0
2018-Jun-18 22:25N 47°30' W 002°44'0 0.0
2018-Jun-18 21:55N 47°30' W 002°44'0 0.0
2018-Jun-18 21:28N 47°30' W 002°44'0 0.0
2018-Jun-18 20:58N 47°30' W 002°44'0 0.0
2018-Jun-18 20:28N 47°30' W 002°44'0 0.0
2018-Jun-18 19:58N 47°30' W 002°44'0 0.0
2018-Jun-18 19:25N 47°30' W 002°44'0 0.0
2018-Jun-18 15:31N 47°30' W 002°44'0 0.3
2018-Jun-18 15:30N 47°30' W 002°44'2 3.2
2018-Jun-18 15:00N 47°29' W 002°44'2 4.7
2018-Jun-18 14:30N 47°27' W 002°47'2 3.9
2018-Jun-18 13:59N 47°28' W 002°50'2 3.9
2018-Jun-18 13:29N 47°29' W 002°52'2 4.0
2018-Jun-18 13:00N 47°30' W 002°54'2 4.0
2018-Jun-18 12:28N 47°33' W 002°54'0 0.0
2018-Jun-17 09:38N 47°33' W 002°54'0 0.0
2018-Jun-17 09:29N 47°33' W 002°54'1 2.1
2018-Jun-17 08:59N 47°33' W 002°55'3 5.3
2018-Jun-17 08:30N 47°35' W 002°53'2 4.1
2018-Jun-17 08:00N 47°36' W 002°51'2 3.5
2018-Jun-17 07:30N 47°35' W 002°49'2 3.6
2018-Jun-17 06:59N 47°34' W 002°51'2 0.2
2018-Jun-16 19:12N 47°34' W 002°54'0 1.8
2018-Jun-16 19:00N 47°34' W 002°55'3 5.9
2018-Jun-16 18:29N 47°31' W 002°54'2 4.4
2018-Jun-16 18:00N 47°29' W 002°52'2 4.0
2018-Jun-16 17:30N 47°29' W 002°49'2 4.4
2018-Jun-16 17:00N 47°28' W 002°46'3 5.0
2018-Jun-16 16:29N 47°27' W 002°43'2 4.9
2018-Jun-16 15:59N 47°26' W 002°40'2 4.7
2018-Jun-16 15:30N 47°24' W 002°37'  
Track history (hours):
 
Tides and Currents Weather Stations Pressure Air Temp Water Temp Dewpoint Dewpoint Depression Visibility Wind Speed Wind Dir Waves Ship Positions

Torr Penn

Last reported at 2018-Jun-26 12:35 UTC. Time now 2018-Jul-18 18:31 UTC.
Position N 47°22' W 002°35'.
Warning: this ship's position is 22 days out of date.

Length 15 m.

Type: Sailing vessel. MMSI: 227163870.

Date/timePositionNaut miles runAvg speedWind from/ knotsBaromVisibWave heightAir tempDewpointWater temp
2018-Jun-26 12:35N 47°22' W 002°35'1 6.6
2018-Jun-26 12:30N 47°23' W 002°34'4 0.2
2018-Jun-25 11:43N 47°23' W 002°41'9 0.4
2018-Jun-24 15:10N 47°21' W 002°53'8 0.2
2018-Jun-22 13:41N 47°23' W 003°04'4 0.1
2018-Jun-21 07:59N 47°21' W 003°09'10 0.2
2018-Jun-19 08:54N 47°22' W 002°55'2 5.6
2018-Jun-19 08:27N 47°24' W 002°53'2 4.8
2018-Jun-19 07:59N 47°26' W 002°50'2 4.9
2018-Jun-19 07:30N 47°27' W 002°47'3 5.0
2018-Jun-19 07:00N 47°29' W 002°44'2 1.2
2018-Jun-19 05:37N 47°30' W 002°44'0 0.0
2018-Jun-19 05:28N 47°30' W 002°44'0 0.0
2018-Jun-19 04:58N 47°30' W 002°44'0 0.0
2018-Jun-19 04:28N 47°30' W 002°44'0 0.0
2018-Jun-19 03:55N 47°30' W 002°44'0 0.0
2018-Jun-19 03:28N 47°30' W 002°44'0 0.0
2018-Jun-19 02:58N 47°30' W 002°44'0 0.0
2018-Jun-19 02:28N 47°30' W 002°44'0 0.0
2018-Jun-19 01:55N 47°30' W 002°44'0 0.0
2018-Jun-19 01:25N 47°30' W 002°44'0 0.0
2018-Jun-19 00:58N 47°30' W 002°44'0 0.0
2018-Jun-19 00:28N 47°30' W 002°44'0 0.0
2018-Jun-18 23:55N 47°30' W 002°44'0 0.0
2018-Jun-18 23:28N 47°30' W 002°44'0 0.0
2018-Jun-18 22:58N 47°30' W 002°44'0 0.0
2018-Jun-18 22:25N 47°30' W 002°44'0 0.0
2018-Jun-18 21:55N 47°30' W 002°44'0 0.0
2018-Jun-18 21:28N 47°30' W 002°44'0 0.0
2018-Jun-18 20:58N 47°30' W 002°44'0 0.0
2018-Jun-18 20:28N 47°30' W 002°44'0 0.0
2018-Jun-18 19:58N 47°30' W 002°44'0 0.0
2018-Jun-18 19:25N 47°30' W 002°44'0 0.0
2018-Jun-18 15:31N 47°30' W 002°44'0 0.3
2018-Jun-18 15:30N 47°30' W 002°44'2 3.2
2018-Jun-18 15:00N 47°29' W 002°44'2 4.7
2018-Jun-18 14:30N 47°27' W 002°47'2 3.9
2018-Jun-18 13:59N 47°28' W 002°50'2 3.9
2018-Jun-18 13:29N 47°29' W 002°52'2 4.0
2018-Jun-18 13:00N 47°30' W 002°54'2 4.0
2018-Jun-18 12:28N 47°33' W 002°54'0 0.0
2018-Jun-17 09:38N 47°33' W 002°54'0 0.0
2018-Jun-17 09:29N 47°33' W 002°54'1 2.1
2018-Jun-17 08:59N 47°33' W 002°55'3 5.3
2018-Jun-17 08:30N 47°35' W 002°53'2 4.1
2018-Jun-17 08:00N 47°36' W 002°51'2 3.5
2018-Jun-17 07:30N 47°35' W 002°49'2 3.6
2018-Jun-17 06:59N 47°34' W 002°51'2 0.2
2018-Jun-16 19:12N 47°34' W 002°54'0 1.8
2018-Jun-16 19:00N 47°34' W 002°55'3 5.9
2018-Jun-16 18:29N 47°31' W 002°54'2 4.4
2018-Jun-16 18:00N 47°29' W 002°52'2 4.0
2018-Jun-16 17:30N 47°29' W 002°49'2 4.4
2018-Jun-16 17:00N 47°28' W 002°46'3 5.0
2018-Jun-16 16:29N 47°27' W 002°43'2 4.9
2018-Jun-16 15:59N 47°26' W 002°40'2 4.7
2018-Jun-16 15:30N 47°24' W 002°37'  

Dump ship's entire track history